Weather observations for the past three days for
Philip, Philip Airport
Metric (Imperial)
Date Time (mdt) Wind (kph) Vis. (km) Weather Sky Cond. Temperature (ºC) Relative Humidity Wind Chill (°C) Heat Index (°C) Pressure Precipitation (cm)
Air Dwpt 6 hour altimeter (cm) sea level (mb) 1 hr 3 hr 6 hr
Max. Min.
08 06:55 SW 15 16.09 A Few Clouds FEW085 8.3 2.2 66% 6 75.79 1010.0
08 05:55 SW 13 16.09 Fair CLR 6.7 1.7 8.3 4.4 71% 4 75.77 1009.6
08 04:55 W 17 16.09 Fair CLR 5 2.2 82% 2 75.74 1009.2
08 03:55 W 15 16.09 Fair CLR 5.6 2.2 79% 3 75.72 1008.9
08 02:55 W 11 16.09 Fair CLR 6.7 0.6 65% 5 75.69 1008.7
08 01:55 W 13 16.09 Fair CLR 7.2 -1.7 54% 5 75.72 1008.7
08 00:55 NW 6 16.09 Fair CLR 7.2 -2.2 52% 75.72 1009.1
07 23:55 Calm 16.09 Fair CLR 7.2 -2.2 18.9 6.7 52% 75.74 1009.4
07 22:55 SW 6 16.09 Fair CLR 9.4 -2.2 44% 75.74 1009.5
07 21:55 Calm 16.09 Mostly Cloudy BKN110 8.3 -2.2 48% 75.77 1009.9
07 20:55 NE 9 16.09 Fair CLR 8.3 -1.1 52% 7 75.74 1010.0
07 19:55 E 7 16.09 Fair CLR 12.8 0 42% 75.69 1009.1
07 18:55 NE 11 16.09 Fair CLR 16.7 -1.7 29% 75.64 1008.8
07 17:55 Calm 16.09 Fair CLR 18.9 -3.9 20.6 16.7 21% 75.64 1008.9
07 16:55 W 13 16.09 Fair CLR 20 -3.9 20% 75.64 1008.8
07 15:55 W 13 G 30 16.09 Fair CLR 19.4 -5 19% 75.69 1009.3
07 14:55 Vrbl 7 16.09 Mostly Cloudy BKN100 18.9 -6.7 17% 75.72 1009.9
07 13:55 W 15 16.09 A Few Clouds FEW110 20 -7.2 15% 75.74 1010.0
07 12:55 Vrbl 7 16.09 Partly Cloudy SCT100 17.8 -7.8 17% 75.77 1010.3
07 11:55 N 9 16.09 Partly Cloudy SCT110 16.7 -6.7 16.7 -3.9 20% 75.82 1011.0
07 10:55 SW 9 16.09 Fair CLR 15.6 -6.7 21% 75.84 1011.1
07 09:55 SE 7 16.09 Fair CLR 13.9 -5.6 26% 75.87 1011.4
07 08:55 Calm 16.09 Fair CLR 10.6 -5 33% 75.87 1011.5
07 07:55 Calm 16.09 Fair CLR 4.4 -5 51% 75.84 1011.7
07 06:55 W 7 16.09 Fair CLR -0.6 -6.1 67% -3 75.82 1011.6
07 05:55 W 9 16.09 Fair CLR -3.3 -7.8 1.1 -4.4 71% -7 75.77 1010.9
07 04:55 W 9 16.09 Fair CLR -3.9 -7.8 75% -7 75.74 1010.4
07 03:55 W 9 16.09 Fair CLR -3.3 -7.8 71% -7 75.72 1010.3
07 02:55 W 11 16.09 Fair CLR -2.8 -7.2 72% -7 75.72 1010.2
07 01:55 NW 7 16.09 Fair CLR -2.2 -7.2 69% -5 75.77 1010.7
07 00:55 W 6 16.09 Fair CLR -0.6 -7.8 59% 75.77 1010.9
06 23:55 Calm 16.09 Fair CLR 1.1 -7.2 14.4 1.1 54% 75.79 1011.1
06 22:55 E 7 16.09 Fair CLR 3.9 -7.2 45% 2 75.82 1011.4
06 21:55 Calm 16.09 Fair CLR 5.6 -7.8 38% 75.87 1012.0
06 20:55 S 6 16.09 Fair CLR 7.8 -7.8 33% 75.92 1012.5
06 19:55 Calm 16.09 Fair CLR 11.1 -7.8 26% 75.92 1012.5
06 18:55 SW 7 16.09 Fair CLR 11.7 -7.8 25% 75.95 1013.2
06 17:55 W 9 16.09 Mostly Cloudy BKN095 13.3 -8.9 15.6 10.6 21% 76 1014.2
06 16:55 NW 15 G 33 16.09 Partly Cloudy SCT095 14.4 -8.9 19% 76.02 1014.6
06 15:55 NW 20 G 30 16.09 A Few Clouds FEW090 13.9 -9.4 19% 76.1 1015.3
06 14:55 W 20 G 33 16.09 Mostly Cloudy BKN085 15 -8.3 19% 76.17 1016.3
06 13:55 W 20 G 35 16.09 Fair CLR 12.8 -8.3 22% 76.23 1017.2
06 12:55 NW 24 G 33 16.09 Fair CLR 12.8 -8.9 21% 76.28 1017.9
06 11:55 NW 13 G 31 16.09 A Few Clouds FEW070 11.7 -8.3 11.7 -5 24% 76.35 1019.0
06 10:55 Vrbl 11 G 33 16.09 Fair CLR 10 -8.9 26% 9 76.4 1019.9
06 09:55 W 22 G 35 16.09 A Few Clouds FEW065 8.9 -8.3 29% 6 76.43 1020.0
06 07:55 W 17 16.09 Fair CLR 5 -6.1 45% 2 76.48 1020.6
06 06:55 W 19 16.09 Fair CLR -0.6 -6.7 64% -5 76.48 1020.7
06 05:55 W 15 16.09 Fair CLR -5 -8.3 -1.7 -5.6 78% -10 76.43 1020.3
06 04:55 W 15 16.09 Fair CLR -5 -8.3 78% -10 76.4 1019.8
06 03:55 W 13 16.09 Fair CLR -3.9 -7.8 75% -8 76.4 1019.7
06 02:55 W 13 16.09 Fair CLR -3.9 -7.8 75% -8 76.35 1019.4
06 01:55 W 9 16.09 Fair CLR -2.8 -7.8 69% -6 76.35 1019.2
06 00:55 W 13 16.09 Partly Cloudy SCT080 -2.2 -7.8 66% -6 76.38 1019.4
05 23:55 W 11 16.09 Fair CLR -2.2 -7.8 10.6 -2.8 66% -6 76.33 1018.8
05 22:55 W 11 16.09 Fair CLR -2.2 -7.2 69% -6 76.3 1018.4
05 21:55 NW 13 16.09 Fair CLR 1.1 -7.2 54% -2 76.3 1018.2
05 20:55 NW 11 16.09 Fair CLR 1.1 -7.8 52% -2 76.25 1017.5
05 19:55 N 15 16.09 Fair CLR 4.4 -7.2 43% 1 76.15 1016.3
05 18:55 N 19 16.09 Partly Cloudy FEW070 SCT090 8.3 -6.7 34% 6 76.12 1015.7
05 17:55 NW 19 16.09 Mostly Cloudy SCT070 BKN090 10 -6.7 11.7 7.8 30% 8 76.1 1015.5
05 16:55 NW 20 G 35 16.09 Mostly Cloudy BKN080 10.6 -6.7 29% 76.07 1015.2
05 14:55 N 13 G 28 16.09 Overcast BKN060 OVC075 8.9 -6.1 34% 7 76.12 1015.5
05 13:55 N 13 16.09 Mostly Cloudy SCT070 BKN085 8.9 -5.6 36% 7 76.15 1015.6
05 12:55 N 20 16.09 Mostly Cloudy BKN070 8.3 -6.1 36% 5 76.17 1015.9
05 11:55 NW 19 G 43 16.09 Partly Cloudy SCT065 SCT080 9.4 -6.7 10 0 32% 7 76.15 1015.9
05 10:55 NW 35 G 48 16.09 Mostly Cloudy and Breezy BKN070 8.9 -8.3 29% 5 76.17 1016.0
05 09:55 NW 28 16.09 Partly Cloudy FEW055 SCT070 7.8 -7.2 34% 4 76.17 1016.1
05 08:55 N 26 G 39 16.09 Fair CLR 7.2 -6.7 37% 4 76.17 1016.0
05 07:55 N 17 16.09 Fair CLR 5.6 -5.6 45% 3 76.17 1015.9
Date Time (mdt) Wind (kph) Vis. (km) Weather Sky Cond. Air Dwpt Max. Min. Relative Humidity Wind Chill (°C) Heat Index (°C) altimeter (cm) sea level (mb) 1 hr 3 hr 6 hr
6 hour
Temperature (ºC) Pressure Precipitation (cm)